Time;durP1;ratioP1;P1;durP2;ratioP2;P2;SDS_P1;SDS_P2;PMS_P1;PMS_P2;Temp;Humidity;BMP_temperature;BMP_pressure;BME280_temperature;BME280_humidity;BME280_pressure;Samples;Min_cycle;Max_cycle;Signal;HPM_P1;HPM_P2
2024/03/15 00:00:03;;;;;;;13.55;9.80;;;13.40;99.90;;;;;;5062383;28;20194;-72
2024/03/15 00:02:34;;;;;;;14.63;9.80;;;13.30;99.90;;;;;;5077132;28;20187;-73
2024/03/15 00:05:00;;;;;;;12.90;9.48;;;13.30;99.90;;;;;;5062309;28;20197;-73
2024/03/15 00:07:25;;;;;;;16.13;9.85;;;13.20;99.90;;;;;;5062795;28;20190;-72
2024/03/15 00:09:51;;;;;;;13.95;10.13;;;13.20;99.90;;;;;;5062567;28;20226;-73
2024/03/15 00:12:17;;;;;;;15.23;9.82;;;13.20;99.90;;;;;;5062768;28;20210;-72
2024/03/15 00:14:43;;;;;;;11.63;9.32;;;13.20;99.90;;;;;;5062276;28;20189;-73
2024/03/15 00:17:12;;;;;;;14.55;9.90;;;13.20;99.90;;;;;;5062967;28;20219;-73
2024/03/15 00:19:38;;;;;;;12.98;9.32;;;13.10;99.90;;;;;;5062382;28;20214;-72
2024/03/15 00:22:04;;;;;;;14.13;10.50;;;13.10;99.90;;;;;;5062226;28;20191;-71
2024/03/15 00:24:30;;;;;;;16.20;10.57;;;13.10;99.90;;;;;;5044715;28;20199;-73
2024/03/15 00:26:56;;;;;;;13.55;9.93;;;13.00;99.90;;;;;;5062077;28;20776;-72
2024/03/15 00:29:22;;;;;;;14.18;10.00;;;13.00;99.90;;;;;;5061373;28;20314;-72
2024/03/15 00:31:47;;;;;;;13.00;10.52;;;13.00;99.90;;;;;;5061634;28;20640;-72
2024/03/15 00:34:14;;;;;;;15.60;10.10;;;13.00;99.90;;;;;;5059659;28;20186;-71
2024/03/15 00:36:41;;;;;;;15.10;10.45;;;12.90;99.90;;;;;;5060660;28;20194;-72
2024/03/15 00:39:07;;;;;;;16.30;9.77;;;12.90;99.90;;;;;;5076623;28;20588;-72
2024/03/15 00:41:33;;;;;;;15.45;9.93;;;12.90;99.90;;;;;;5076967;28;20236;-70
2024/03/15 00:43:58;;;;;;;16.08;10.68;;;12.90;99.90;;;;;;5061933;28;20209;-75
2024/03/15 00:46:24;;;;;;;13.30;9.85;;;12.90;99.90;;;;;;5060761;28;20187;-73
2024/03/15 00:48:53;;;;;;;14.40;10.18;;;12.80;99.90;;;;;;5061843;28;20218;-73
2024/03/15 00:51:19;;;;;;;19.25;10.52;;;12.80;99.90;;;;;;5058447;28;20214;-72
2024/03/15 00:53:45;;;;;;;14.82;10.18;;;12.80;99.90;;;;;;5062227;28;20205;-72
2024/03/15 00:56:11;;;;;;;15.82;10.23;;;12.70;99.90;;;;;;5061866;28;21274;-73
2024/03/15 00:58:37;;;;;;;16.40;10.23;;;12.70;99.90;;;;;;5061619;28;20190;-72
2024/03/15 01:01:04;;;;;;;16.35;10.30;;;12.70;99.90;;;;;;5060074;28;20275;-72
2024/03/15 01:03:33;;;;;;;14.38;9.93;;;12.70;99.90;;;;;;5061471;28;20277;-72
2024/03/15 01:05:59;;;;;;;13.70;9.60;;;12.70;99.90;;;;;;5062115;28;20248;-72
2024/03/15 01:08:26;;;;;;;13.88;9.10;;;12.80;99.90;;;;;;5060636;28;20182;-73
2024/03/15 01:10:52;;;;;;;15.07;10.25;;;12.80;99.90;;;;;;5061550;28;20244;-71
2024/03/15 01:13:18;;;;;;;13.40;9.65;;;12.80;99.90;;;;;;5060857;28;20273;-71
2024/03/15 01:15:45;;;;;;;16.23;10.23;;;12.80;99.90;;;;;;5061918;28;20183;-71
2024/03/15 01:18:12;;;;;;;13.15;9.52;;;12.80;99.90;;;;;;5062216;28;20561;-72
2024/03/15 01:20:38;;;;;;;14.52;9.57;;;12.80;99.90;;;;;;5061047;28;20187;-71
2024/03/15 01:23:04;;;;;;;14.98;9.98;;;12.80;99.90;;;;;;5060001;28;20200;-72
2024/03/15 01:25:29;;;;;;;12.57;9.40;;;12.80;99.90;;;;;;5059483;28;20198;-72
2024/03/15 01:27:58;;;;;;;13.73;9.10;;;12.80;99.90;;;;;;5061118;28;20182;-72
2024/03/15 01:30:24;;;;;;;13.65;9.35;;;12.80;99.90;;;;;;5061148;28;20219;-73
2024/03/15 01:32:50;;;;;;;16.10;8.75;;;12.80;99.90;;;;;;5060238;28;20194;-70
2024/03/15 01:35:16;;;;;;;10.82;8.48;;;12.80;99.90;;;;;;5043910;28;20186;-73
2024/03/15 01:37:43;;;;;;;12.32;8.80;;;12.80;99.90;;;;;;5061299;28;20218;-71
2024/03/15 01:40:12;;;;;;;15.18;9.38;;;12.80;99.90;;;;;;5061237;28;20277;-71
2024/03/15 01:42:38;;;;;;;11.55;8.93;;;12.80;99.90;;;;;;5061277;28;20182;-70
2024/03/15 01:45:04;;;;;;;13.40;9.25;;;12.80;99.90;;;;;;5061411;28;20670;-72
2024/03/15 01:47:30;;;;;;;10.40;8.60;;;12.80;99.90;;;;;;5059182;28;20203;-72
2024/03/15 01:50:01;;;;;;;11.15;9.00;;;12.80;99.90;;;;;;5060890;28;20726;-73
2024/03/15 01:52:30;;;;;;;12.77;9.40;;;12.90;99.90;;;;;;5061194;28;20651;-72
2024/03/15 01:54:56;;;;;;;13.75;8.82;;;12.90;99.90;;;;;;5060852;28;20198;-71
2024/03/15 01:57:23;;;;;;;15.65;9.20;;;12.90;99.90;;;;;;5061507;28;20217;-73
2024/03/15 01:59:48;;;;;;;13.98;9.68;;;12.90;99.90;;;;;;5076132;28;20195;-72
2024/03/15 02:02:14;;;;;;;13.00;8.98;;;13.00;99.90;;;;;;5061078;28;20187;-71
2024/03/15 02:04:40;;;;;;;12.98;8.70;;;13.00;99.90;;;;;;5061420;28;20273;-71
2024/03/15 02:07:07;;;;;;;13.82;8.32;;;13.00;99.90;;;;;;5077094;28;20533;-72
2024/03/15 02:09:32;;;;;;;12.82;9.20;;;13.00;99.90;;;;;;5060902;28;20244;-72
2024/03/15 02:11:59;;;;;;;13.70;9.40;;;13.00;99.90;;;;;;5060714;28;20217;-72
2024/03/15 02:14:25;;;;;;;13.43;9.00;;;13.00;99.90;;;;;;5061063;28;20671;-72
2024/03/15 02:16:53;;;;;;;16.77;9.10;;;13.00;99.90;;;;;;5059084;28;20218;-73
2024/03/15 02:19:19;;;;;;;15.68;9.27;;;13.00;99.90;;;;;;5060816;28;20582;-71
2024/03/15 02:21:47;;;;;;;12.85;8.88;;;13.00;99.90;;;;;;5060966;28;20244;-72
2024/03/15 02:24:14;;;;;;;15.30;8.98;;;13.00;99.90;;;;;;5060914;28;20647;-72
2024/03/15 02:26:42;;;;;;;11.93;8.93;;;13.10;99.90;;;;;;5064529;28;20194;-75
2024/03/15 02:29:16;;;;;;;12.07;9.13;;;13.00;99.90;;;;;;5064016;28;20198;-72
2024/03/15 02:31:45;;;;;;;13.50;9.27;;;13.00;99.90;;;;;;5063150;28;20214;-70
2024/03/15 02:34:11;;;;;;;13.80;9.32;;;13.00;99.90;;;;;;5064604;28;20198;-70
2024/03/15 02:36:37;;;;;;;11.98;9.30;;;13.00;99.90;;;;;;5064230;28;20198;-72
2024/03/15 02:39:03;;;;;;;12.90;9.27;;;13.00;99.90;;;;;;5049122;28;20284;-71
2024/03/15 02:41:28;;;;;;;14.32;9.65;;;13.00;99.90;;;;;;5064719;28;20195;-72
2024/03/15 02:43:54;;;;;;;13.23;8.95;;;13.00;99.90;;;;;;5062629;28;20199;-71
2024/03/15 02:46:20;;;;;;;13.07;9.15;;;12.90;99.90;;;;;;5064355;28;20227;-73
2024/03/15 02:48:45;;;;;;;13.23;9.40;;;13.00;99.90;;;;;;5064109;28;20186;-70
2024/03/15 02:51:11;;;;;;;14.23;10.05;;;13.00;99.90;;;;;;5063330;28;20579;-73
2024/03/15 02:53:37;;;;;;;15.55;9.73;;;13.00;99.90;;;;;;5064129;28;20286;-72
2024/03/15 02:56:03;;;;;;;12.02;9.20;;;13.00;99.90;;;;;;5061978;28;20198;-71
2024/03/15 02:58:30;;;;;;;13.30;9.35;;;13.00;99.90;;;;;;5079572;28;20256;-74
2024/03/15 03:00:56;;;;;;;14.50;9.52;;;13.00;99.90;;;;;;5063936;28;20233;-74
2024/03/15 03:03:22;;;;;;;12.40;9.88;;;13.00;99.90;;;;;;5062669;28;20199;-72
2024/03/15 03:05:48;;;;;;;17.92;10.10;;;13.00;99.90;;;;;;5063893;28;20186;-73
2024/03/15 03:08:16;;;;;;;16.60;9.88;;;13.00;99.90;;;;;;5063630;28;20198;-72
2024/03/15 03:10:42;;;;;;;14.75;9.82;;;13.00;99.90;;;;;;5079018;28;20248;-71
2024/03/15 03:13:08;;;;;;;12.88;9.70;;;13.00;99.90;;;;;;5045556;28;20206;-73
2024/03/15 03:15:34;;;;;;;15.00;9.90;;;13.00;99.90;;;;;;5062830;28;20910;-73
2024/03/15 03:18:00;;;;;;;18.00;10.30;;;13.00;99.90;;;;;;5063257;28;20189;-73
2024/03/15 03:20:35;;;;;;;16.33;10.30;;;13.00;99.90;;;;;;5064315;28;20294;-72
2024/03/15 03:23:01;;;;;;;15.77;10.00;;;13.00;99.90;;;;;;5062892;28;20285;-72
2024/03/15 03:25:27;;;;;;;13.75;10.20;;;13.00;99.90;;;;;;5063326;28;20344;-72
2024/03/15 03:27:52;;;;;;;15.85;9.77;;;13.00;99.90;;;;;;5061996;28;20198;-73
2024/03/15 03:30:18;;;;;;;14.25;10.10;;;13.00;99.90;;;;;;5062195;28;21180;-72
2024/03/15 03:32:44;;;;;;;13.65;10.15;;;13.00;99.90;;;;;;5063455;28;20282;-73
2024/03/15 03:35:09;;;;;;;16.10;10.98;;;12.90;99.90;;;;;;5063279;28;20178;-72
2024/03/15 03:37:35;;;;;;;16.40;10.23;;;12.90;99.90;;;;;;5062690;28;20854;-72
2024/03/15 03:40:01;;;;;;;16.30;10.85;;;12.90;99.90;;;;;;5063372;28;20214;-72
2024/03/15 03:42:28;;;;;;;15.98;11.00;;;12.90;99.90;;;;;;5060529;28;20233;-73
2024/03/15 03:44:54;;;;;;;21.48;11.63;;;12.80;99.90;;;;;;5063081;28;20247;-72
2024/03/15 03:47:22;;;;;;;16.98;10.88;;;12.80;99.90;;;;;;5062362;28;20199;-72
2024/03/15 03:49:51;;;;;;;15.80;11.02;;;12.80;99.90;;;;;;5045201;28;20229;-73
2024/03/15 03:52:18;;;;;;;17.20;11.85;;;12.80;99.90;;;;;;5063632;28;20215;-73
2024/03/15 03:54:43;;;;;;;16.42;11.27;;;12.80;99.90;;;;;;5062309;28;20643;-73
2024/03/15 03:57:21;;;;;;;19.00;11.95;;;12.80;99.90;;;;;;5062633;28;20194;-73
2024/03/15 03:59:50;;;;;;;18.95;11.05;;;12.80;99.90;;;;;;5062746;28;20190;-72
2024/03/15 04:02:15;;;;;;;17.73;11.82;;;12.70;99.90;;;;;;5061394;28;20179;-73
2024/03/15 04:04:42;;;;;;;16.42;11.55;;;12.80;99.90;;;;;;5062059;28;20694;-72
2024/03/15 04:07:09;;;;;;;18.55;12.35;;;12.70;99.90;;;;;;5062859;28;20651;-71
2024/03/15 04:09:35;;;;;;;15.10;11.50;;;12.70;99.90;;;;;;5060998;28;20261;-72
2024/03/15 04:12:02;;;;;;;18.67;12.30;;;12.70;99.90;;;;;;5061128;28;20218;-72
2024/03/15 04:14:27;;;;;;;19.95;12.27;;;12.70;99.90;;;;;;5062376;28;20195;-72
2024/03/15 04:16:54;;;;;;;15.50;11.73;;;12.70;99.90;;;;;;5060828;28;20193;-72
2024/03/15 04:19:22;;;;;;;20.17;12.38;;;12.70;99.90;;;;;;5062105;28;20825;-70
2024/03/15 04:21:48;;;;;;;17.45;12.40;;;12.70;99.90;;;;;;5061994;28;20257;-71
2024/03/15 04:24:16;;;;;;;18.17;12.52;;;12.60;99.90;;;;;;5060580;28;20386;-72
2024/03/15 04:26:42;;;;;;;17.30;12.65;;;12.60;99.90;;;;;;5062903;28;20251;-72
2024/03/15 04:29:07;;;;;;;19.80;13.43;;;12.60;99.90;;;;;;5060477;28;20191;-71
2024/03/15 04:31:33;;;;;;;18.67;12.57;;;12.60;99.90;;;;;;5060601;28;20199;-72
2024/03/15 04:33:59;;;;;;;20.50;12.90;;;12.60;99.90;;;;;;5060753;28;20195;-72
2024/03/15 04:36:25;;;;;;;23.85;12.90;;;12.60;99.90;;;;;;5061682;28;20179;-71
2024/03/15 04:38:51;;;;;;;19.58;13.25;;;12.60;99.90;;;;;;5062540;28;20186;-73
2024/03/15 04:41:21;;;;;;;17.10;13.00;;;12.60;99.90;;;;;;5060981;28;20568;-71
2024/03/15 04:43:47;;;;;;;21.45;13.10;;;12.60;99.90;;;;;;5062191;28;20601;-72
2024/03/15 04:46:13;;;;;;;19.50;12.90;;;12.60;99.90;;;;;;5061660;28;20197;-73
2024/03/15 04:48:39;;;;;;;20.50;14.25;;;12.60;99.90;;;;;;5061246;28;20651;-72
2024/03/15 04:51:04;;;;;;;23.15;13.90;;;12.60;99.90;;;;;;5060640;28;20217;-73
2024/03/15 04:53:30;;;;;;;17.85;12.77;;;12.60;99.90;;;;;;5062048;28;20190;-72
2024/03/15 04:55:56;;;;;;;18.70;13.48;;;12.60;99.90;;;;;;5061623;28;20190;-72
2024/03/15 04:58:22;;;;;;;23.02;13.57;;;12.60;99.90;;;;;;5061627;28;20198;-73
2024/03/15 05:00:50;;;;;;;22.30;14.20;;;12.50;99.90;;;;;;5061188;28;20957;-72
2024/03/15 05:03:15;;;;;;;21.58;13.98;;;12.50;99.90;;;;;;5061357;28;20178;-73
2024/03/15 05:05:41;;;;;;;21.50;13.82;;;12.50;99.90;;;;;;5061585;28;21356;-71
2024/03/15 05:08:07;;;;;;;20.85;14.35;;;12.50;99.90;;;;;;5059272;28;20240;-73
2024/03/15 05:10:33;;;;;;;26.33;15.30;;;12.50;99.90;;;;;;5059852;28;20226;-71
2024/03/15 05:12:58;;;;;;;24.15;14.75;;;12.40;99.90;;;;;;5061747;28;20274;-72
2024/03/15 05:15:24;;;;;;;23.13;14.80;;;12.40;99.90;;;;;;5062082;28;20209;-71
2024/03/15 05:17:50;;;;;;;24.45;16.02;;;12.30;99.90;;;;;;5060745;28;20651;-73
2024/03/15 05:20:15;;;;;;;22.88;15.38;;;12.30;99.90;;;;;;5059823;28;20182;-72
2024/03/15 05:22:44;;;;;;;22.85;15.63;;;12.30;99.90;;;;;;5061538;28;20193;-72
2024/03/15 05:25:14;;;;;;;25.27;16.08;;;12.30;99.90;;;;;;5061197;28;20281;-71
2024/03/15 05:27:40;;;;;;;24.80;16.98;;;12.30;99.90;;;;;;5061644;28;20186;-70
2024/03/15 05:30:07;;;;;;;26.65;16.38;;;12.30;99.90;;;;;;5042596;28;20194;-73
2024/03/15 05:32:33;;;;;;;25.55;17.02;;;12.30;99.90;;;;;;5061575;28;20193;-73
2024/03/15 05:35:00;;;;;;;26.95;17.13;;;12.30;99.90;;;;;;5059945;28;20190;-73
2024/03/15 05:37:26;;;;;;;28.00;17.73;;;12.30;99.90;;;;;;5061319;28;20194;-73
2024/03/15 05:39:52;;;;;;;24.95;16.65;;;12.30;99.90;;;;;;5059840;28;20218;-70
2024/03/15 05:42:18;;;;;;;26.85;17.88;;;12.30;99.90;;;;;;5061162;28;20221;-71
2024/03/15 05:44:47;;;;;;;25.08;18.17;;;12.30;99.90;;;;;;5059972;28;20255;-73
2024/03/15 05:47:17;;;;;;;26.75;18.70;;;12.20;99.90;;;;;;5059572;28;20202;-70
2024/03/15 05:49:42;;;;;;;29.85;18.65;;;12.20;99.90;;;;;;5060279;28;20186;-73
2024/03/15 05:52:14;;;;;;;30.30;18.80;;;12.20;99.90;;;;;;5061091;28;20937;-72
2024/03/15 05:54:40;;;;;;;26.77;18.85;;;12.30;99.90;;;;;;5061451;28;20670;-72
2024/03/15 05:57:07;;;;;;;28.88;19.48;;;12.30;99.90;;;;;;5060742;28;20183;-70
2024/03/15 05:59:33;;;;;;;30.38;18.83;;;12.30;99.90;;;;;;5061980;28;20673;-72
2024/03/15 06:01:59;;;;;;;28.05;19.08;;;12.30;99.90;;;;;;5064835;28;20716;-72
2024/03/15 06:04:25;;;;;;;29.25;20.38;;;12.40;99.90;;;;;;5065316;28;20194;-73
2024/03/15 06:06:51;;;;;;;29.00;20.20;;;12.40;99.90;;;;;;5064832;28;20561;-72
2024/03/15 06:09:16;;;;;;;29.35;20.63;;;12.40;99.90;;;;;;5065113;28;20202;-70
2024/03/15 06:11:42;;;;;;;28.33;19.73;;;12.40;99.90;;;;;;5063786;28;20653;-70
2024/03/15 06:14:11;;;;;;;27.73;20.10;;;12.50;99.90;;;;;;5065308;28;20198;-71
2024/03/15 06:16:40;;;;;;;30.95;20.13;;;12.50;99.90;;;;;;5065172;28;20198;-72
2024/03/15 06:19:06;;;;;;;32.83;19.98;;;12.50;99.90;;;;;;5065186;28;20194;-71
2024/03/15 06:21:33;;;;;;;28.00;19.83;;;12.60;99.90;;;;;;5064704;28;20277;-69
2024/03/15 06:24:00;;;;;;;26.33;20.30;;;12.60;99.90;;;;;;5061566;28;20210;-70
2024/03/15 06:26:26;;;;;;;35.58;20.02;;;12.60;99.90;;;;;;5064157;28;20187;-71
2024/03/15 06:28:54;;;;;;;30.88;20.00;;;12.70;99.90;;;;;;5062674;28;20245;-72
2024/03/15 06:31:20;;;;;;;27.20;19.38;;;12.70;99.90;;;;;;5064219;28;20210;-72
2024/03/15 06:33:48;;;;;;;29.17;20.40;;;12.70;99.90;;;;;;5062714;28;20244;-73
2024/03/15 06:36:18;;;;;;;31.60;20.30;;;12.70;99.90;;;;;;5064016;28;20296;-75
2024/03/15 06:41:19;;;;;;;25.75;19.98;;;12.80;99.90;;;;;;5064883;28;20199;-70
2024/03/15 06:43:47;;;;;;;31.63;20.05;;;12.80;99.90;;;;;;5064158;28;20271;-73
2024/03/15 06:46:30;;;;;;;29.08;20.58;;;12.90;99.90;;;;;;5063875;28;20545;-74
2024/03/15 06:48:57;;;;;;;26.92;18.73;;;12.90;99.90;;;;;;5063427;28;20199;-71
2024/03/15 06:54:08;;;;;;;31.23;19.48;;;12.90;99.90;;;;;;5062388;28;20194;-74
2024/03/15 06:56:36;;;;;;;26.50;19.63;;;12.90;99.90;;;;;;5064455;28;20187;-73
2024/03/15 06:59:02;;;;;;;30.15;19.63;;;13.00;99.90;;;;;;5063560;28;20700;-70
2024/03/15 07:01:28;;;;;;;31.50;20.33;;;13.00;99.90;;;;;;5063087;28;20214;-72
2024/03/15 07:03:59;;;;;;;29.02;19.50;;;13.10;99.90;;;;;;5063855;28;20202;-73
2024/03/15 07:06:27;;;;;;;25.50;19.15;;;13.10;99.90;;;;;;5047646;28;20198;-72
2024/03/15 07:08:55;;;;;;;23.38;18.13;;;13.10;99.90;;;;;;5064077;28;20569;-72
2024/03/15 07:11:26;;;;;;;27.27;19.17;;;13.10;99.90;;;;;;5063021;28;20321;-73
2024/03/15 07:13:52;;;;;;;27.10;19.27;;;13.10;99.90;;;;;;5062870;28;20547;-72
2024/03/15 07:16:18;;;;;;;29.60;19.85;;;13.10;99.90;;;;;;5064078;28;20216;-73
2024/03/15 07:18:43;;;;;;;29.08;18.73;;;13.20;99.90;;;;;;5064001;28;20190;-71
2024/03/15 07:21:12;;;;;;;26.92;19.38;;;13.20;99.90;;;;;;5062582;28;20198;-70
2024/03/15 07:23:39;;;;;;;27.35;19.65;;;13.20;99.90;;;;;;5063084;28;20247;-71
2024/03/15 07:26:05;;;;;;;27.42;19.25;;;13.30;99.90;;;;;;5063311;28;20194;-73
2024/03/15 07:28:31;;;;;;;25.05;18.95;;;13.40;99.90;;;;;;5063961;28;20213;-74
2024/03/15 07:30:57;;;;;;;26.60;18.95;;;13.40;99.90;;;;;;5063756;28;20573;-73
2024/03/15 07:33:23;;;;;;;26.42;18.65;;;13.40;99.90;;;;;;5062813;28;20272;-72
2024/03/15 07:35:49;;;;;;;29.42;19.98;;;13.50;99.90;;;;;;5063418;28;20245;-73
2024/03/15 07:38:15;;;;;;;25.88;18.83;;;13.50;99.90;;;;;;5063261;28;20210;-73
2024/03/15 07:40:41;;;;;;;29.27;19.25;;;13.40;99.90;;;;;;5063171;28;20722;-73
2024/03/15 07:43:09;;;;;;;24.60;18.50;;;13.50;99.90;;;;;;5061814;28;20281;-74
2024/03/15 07:45:35;;;;;;;24.77;18.45;;;13.50;99.90;;;;;;5061178;28;20358;-73
2024/03/15 07:48:01;;;;;;;26.00;18.67;;;13.50;99.90;;;;;;5061403;28;20201;-73
2024/03/15 07:50:27;;;;;;;25.38;18.15;;;13.50;99.90;;;;;;5062207;28;20198;-74
2024/03/15 07:52:53;;;;;;;28.27;18.35;;;13.60;99.90;;;;;;5063607;28;20261;-74
2024/03/15 07:55:20;;;;;;;25.63;18.20;;;13.60;99.90;;;;;;5045118;28;20194;-75
2024/03/15 07:57:47;;;;;;;27.60;17.25;;;13.70;99.90;;;;;;5063075;28;20197;-73
2024/03/15 08:00:14;;;;;;;26.67;17.80;;;13.80;99.90;;;;;;5062898;28;20658;-74
2024/03/15 08:02:43;;;;;;;22.73;16.85;;;13.80;99.90;;;;;;5062546;28;20191;-73
2024/03/15 08:05:12;;;;;;;26.17;17.77;;;13.80;99.90;;;;;;5062507;28;20201;-73
2024/03/15 08:07:40;;;;;;;25.33;18.20;;;13.90;99.90;;;;;;5062688;28;20201;-72
2024/03/15 08:10:10;;;;;;;21.77;17.98;;;13.90;99.90;;;;;;5062797;28;20236;-71
2024/03/15 08:12:39;;;;;;;23.15;17.42;;;13.90;99.90;;;;;;5062255;28;20225;-71
2024/03/15 08:15:07;;;;;;;24.08;17.42;;;14.00;99.90;;;;;;5062825;28;20186;-72
2024/03/15 08:17:33;;;;;;;21.15;17.55;;;14.00;99.90;;;;;;5062297;28;20244;-72
2024/03/15 08:19:59;;;;;;;23.77;17.13;;;14.10;99.90;;;;;;5061105;28;20205;-72
2024/03/15 08:22:25;;;;;;;24.00;17.33;;;14.10;99.90;;;;;;5061317;28;20187;-73
2024/03/15 08:24:50;;;;;;;25.85;16.70;;;14.20;99.90;;;;;;5061913;28;21327;-70
2024/03/15 08:27:16;;;;;;;23.73;16.75;;;14.20;99.90;;;;;;5061968;28;20191;-75
2024/03/15 08:29:42;;;;;;;24.38;17.10;;;14.30;99.90;;;;;;5061330;28;20190;-75
2024/03/15 08:32:07;;;;;;;24.63;18.48;;;14.30;99.90;;;;;;5061225;28;20217;-72
2024/03/15 08:34:35;;;;;;;25.88;15.82;;;14.30;99.90;;;;;;5062121;28;20187;-75
2024/03/15 08:37:01;;;;;;;22.02;16.13;;;14.20;99.90;;;;;;5061900;28;20237;-73
2024/03/15 08:39:29;;;;;;;21.80;15.27;;;14.30;99.90;;;;;;5061897;28;20230;-73
2024/03/15 08:41:55;;;;;;;20.60;14.70;;;14.30;99.90;;;;;;5062860;28;20229;-75
2024/03/15 08:44:21;;;;;;;22.45;15.00;;;14.20;99.90;;;;;;5061749;28;20544;-76
2024/03/15 08:46:47;;;;;;;20.98;14.18;;;14.20;99.90;;;;;;5076844;28;20187;-73
2024/03/15 08:49:15;;;;;;;21.45;14.32;;;14.20;99.90;;;;;;5061958;28;20247;-75
2024/03/15 08:51:43;;;;;;;23.73;14.20;;;14.20;99.90;;;;;;5062623;28;20242;-76
2024/03/15 08:54:09;;;;;;;22.38;14.10;;;14.20;99.90;;;;;;5060423;28;20561;-73
2024/03/15 08:56:35;;;;;;;24.25;14.18;;;14.10;99.90;;;;;;5043134;28;20191;-74
2024/03/15 08:59:04;;;;;;;24.60;14.07;;;14.10;99.90;;;;;;5061393;28;20517;-74
2024/03/15 09:01:34;;;;;;;22.10;12.75;;;14.00;99.90;;;;;;5060142;28;20589;-75
2024/03/15 09:04:07;;;;;;;20.50;12.63;;;14.00;99.90;;;;;;5060986;28;20202;-74
2024/03/15 09:06:34;;;;;;;17.25;12.32;;;14.00;99.90;;;;;;5060117;28;20197;-73
2024/03/15 09:09:07;;;;;;;20.60;13.27;;;14.00;99.90;;;;;;5061583;28;20619;-75
2024/03/15 09:11:33;;;;;;;18.20;12.45;;;14.00;99.90;;;;;;5056227;28;20222;-75
2024/03/15 09:13:59;;;;;;;21.63;13.32;;;13.90;99.90;;;;;;5060066;28;20485;-73
2024/03/15 09:16:24;;;;;;;17.92;12.15;;;13.90;99.90;;;;;;5060816;28;20646;-75
2024/03/15 09:18:52;;;;;;;17.38;11.65;;;13.90;99.90;;;;;;5059758;28;20202;-75
2024/03/15 09:21:20;;;;;;;18.60;12.50;;;13.90;99.90;;;;;;5058907;28;20204;-74
2024/03/15 09:23:45;;;;;;;20.85;11.45;;;13.90;99.90;;;;;;5057691;28;20224;-73
2024/03/15 09:26:11;;;;;;;19.70;11.68;;;13.90;99.90;;;;;;5061084;28;20194;-75
2024/03/15 09:28:43;;;;;;;18.02;11.23;;;14.00;99.90;;;;;;5060767;28;20194;-74
2024/03/15 09:31:10;;;;;;;16.10;9.35;;;14.00;99.90;;;;;;5061357;28;20218;-74
2024/03/15 09:33:39;;;;;;;15.02;8.75;;;14.10;99.90;;;;;;5058795;28;20183;-75
2024/03/15 09:36:05;;;;;;;17.73;9.05;;;14.20;99.90;;;;;;5060483;28;20183;-75
2024/03/15 09:38:34;;;;;;;17.15;8.20;;;14.30;99.90;;;;;;5061020;28;20221;-74
2024/03/15 09:41:00;;;;;;;15.25;8.52;;;14.40;99.90;;;;;;5059920;28;20214;-75
2024/03/15 09:43:26;;;;;;;13.50;8.52;;;14.50;99.90;;;;;;5061992;28;20224;-71
2024/03/15 09:45:53;;;;;;;18.88;8.10;;;14.60;99.90;;;;;;5061113;28;20182;-73
2024/03/15 09:48:21;;;;;;;13.80;7.55;;;14.70;99.90;;;;;;5059253;28;20185;-73
2024/03/15 09:50:52;;;;;;;18.20;7.25;;;14.80;99.90;;;;;;5060042;28;20210;-72
2024/03/15 09:53:19;;;;;;;15.00;7.22;;;14.80;99.90;;;;;;5076076;28;20182;-73
2024/03/15 09:55:52;;;;;;;14.45;6.45;;;14.90;99.90;;;;;;5060405;28;20538;-74
2024/03/15 09:58:20;;;;;;;17.25;6.97;;;14.80;99.90;;;;;;5060553;28;20186;-74
2024/03/15 10:00:47;;;;;;;19.17;6.57;;;14.70;99.90;;;;;;5058887;28;20228;-72
2024/03/15 10:03:13;;;;;;;14.13;6.85;;;14.60;99.90;;;;;;5060406;28;20200;-73
2024/03/15 10:05:39;;;;;;;12.10;6.50;;;14.60;99.90;;;;;;5060687;28;20212;-75
2024/03/15 10:08:06;;;;;;;13.65;6.47;;;14.60;99.90;;;;;;5060676;28;21256;-72
2024/03/15 10:10:32;;;;;;;16.83;6.90;;;14.50;99.90;;;;;;5076125;28;20241;-72
2024/03/15 10:12:58;;;;;;;15.18;6.22;;;14.50;99.90;;;;;;5076726;28;20194;-73
2024/03/15 10:15:24;;;;;;;17.38;6.13;;;14.50;99.90;;;;;;5059871;28;20199;-71
2024/03/15 10:17:53;;;;;;;18.63;6.43;;;14.50;99.90;;;;;;5060713;28;20191;-75
2024/03/15 10:20:24;;;;;;;19.75;7.13;;;14.40;99.90;;;;;;5050106;28;20256;-74
2024/03/15 10:22:56;;;;;;;18.42;7.03;;;14.40;99.90;;;;;;5059226;28;20198;-74
2024/03/15 10:25:24;;;;;;;16.42;5.63;;;14.50;99.90;;;;;;5060084;28;20191;-71
2024/03/15 10:27:50;;;;;;;17.45;5.28;;;14.50;99.90;;;;;;5059518;28;20174;-73
2024/03/15 10:30:22;;;;;;;15.85;5.70;;;14.50;99.90;;;;;;5059851;28;20665;-71
2024/03/15 10:32:53;;;;;;;20.38;5.20;;;14.60;99.90;;;;;;5060495;28;20221;-72
2024/03/15 10:35:20;;;;;;;9.48;4.68;;;14.60;99.90;;;;;;5060285;28;20210;-72
2024/03/15 10:37:50;;;;;;;14.55;4.63;;;14.60;99.90;;;;;;5060517;28;20552;-71
2024/03/15 10:40:18;;;;;;;17.17;5.38;;;14.70;99.90;;;;;;5060197;28;20273;-72
2024/03/15 10:42:49;;;;;;;12.88;4.10;;;14.70;99.90;;;;;;5060023;28;20202;-72
2024/03/15 10:45:17;;;;;;;13.70;4.45;;;14.80;99.90;;;;;;5059674;28;20676;-72
2024/03/15 10:47:43;;;;;;;17.40;3.97;;;15.00;99.90;;;;;;5063394;28;20278;-72
2024/03/15 10:50:15;;;;;;;11.98;3.75;;;15.00;99.90;;;;;;5064005;28;20278;-72
2024/03/15 10:52:44;;;;;;;17.92;3.97;;;15.10;99.90;;;;;;5046240;28;20214;-70
2024/03/15 10:55:22;;;;;;;9.07;3.60;;;15.20;99.90;;;;;;5061666;28;20179;-71
2024/03/15 10:57:50;;;;;;;18.10;4.45;;;15.30;99.90;;;;;;5063890;28;20512;-74
2024/03/15 11:00:18;;;;;;;10.50;3.28;;;15.30;99.90;;;;;;5078674;28;20201;-71
2024/03/15 11:02:50;;;;;;;12.07;3.20;;;15.40;99.90;;;;;;5062306;28;20186;-72
2024/03/15 11:05:18;;;;;;;9.40;3.53;;;15.40;99.90;;;;;;5063106;28;20194;-72
2024/03/15 11:07:48;;;;;;;12.82;3.40;;;15.40;99.90;;;;;;5063410;28;20900;-72
2024/03/15 11:10:15;;;;;;;13.10;3.40;;;15.40;99.90;;;;;;5061581;28;20282;-72
2024/03/15 11:12:40;;;;;;;11.57;2.80;;;15.50;99.90;;;;;;5048197;28;20218;-72
2024/03/15 11:15:15;;;;;;;11.27;2.72;;;15.50;99.90;;;;;;5062908;28;20195;-72
2024/03/15 11:17:42;;;;;;;9.90;2.80;;;15.50;99.90;;;;;;5062915;28;20205;-76
2024/03/15 11:20:12;;;;;;;12.38;3.30;;;15.60;99.90;;;;;;5063245;28;20534;-73
2024/03/15 11:22:39;;;;;;;13.75;3.13;;;15.60;99.90;;;;;;5062875;28;20248;-74
2024/03/15 11:25:07;;;;;;;13.73;3.20;;;15.60;99.90;;;;;;5062662;28;20190;-73
2024/03/15 11:27:58;;;;;;;10.70;2.90;;;15.60;99.90;;;;;;5061881;28;20202;-72
2024/03/15 11:30:27;;;;;;;11.95;3.03;;;15.70;99.90;;;;;;5063262;28;20576;-72
2024/03/15 11:32:54;;;;;;;13.07;2.88;;;15.80;99.90;;;;;;5063100;28;20957;-72
2024/03/15 11:35:22;;;;;;;12.43;3.00;;;15.90;99.90;;;;;;5063465;28;20206;-73
2024/03/15 11:37:55;;;;;;;13.57;3.90;;;16.00;99.90;;;;;;5062360;28;20179;-72
2024/03/15 11:40:24;;;;;;;13.27;2.97;;;16.10;99.90;;;;;;5062969;28;20650;-73
2024/03/15 11:42:50;;;;;;;11.25;2.80;;;16.10;99.90;;;;;;5061624;28;20217;-73
2024/03/15 11:45:17;;;;;;;12.70;2.90;;;16.20;99.90;;;;;;5063004;28;20190;-73
2024/03/15 11:47:43;;;;;;;13.85;4.85;;;16.30;99.90;;;;;;5049026;28;20208;-74
2024/03/15 11:50:13;;;;;;;8.80;2.97;;;16.30;99.90;;;;;;5062076;28;20613;-73
2024/03/15 11:52:40;;;;;;;10.90;3.10;;;16.30;99.90;;;;;;5062530;28;20210;-71
2024/03/15 11:55:11;;;;;;;12.27;3.40;;;16.30;99.90;;;;;;5062174;28;20316;-72
2024/03/15 11:57:39;;;;;;;14.98;3.45;;;16.30;99.90;;;;;;5062162;28;20198;-72
2024/03/15 12:00:20;;;;;;;13.45;3.42;;;16.30;99.90;;;;;;5062206;28;20204;-75
2024/03/15 12:02:49;;;;;;;10.13;3.60;;;16.40;99.90;;;;;;5061226;28;20202;-72
2024/03/15 12:05:15;;;;;;;15.23;3.30;;;16.40;99.90;;;;;;5061734;28;20645;-72
2024/03/15 12:07:43;;;;;;;14.88;3.33;;;16.40;99.90;;;;;;5061062;28;20335;-74
2024/03/15 12:10:13;;;;;;;12.00;3.63;;;16.50;99.90;;;;;;5062122;28;20330;-72
2024/03/15 12:12:39;;;;;;;12.25;3.60;;;16.50;99.90;;;;;;5062313;28;20210;-73
2024/03/15 12:15:23;;;;;;;14.93;3.83;;;16.40;99.90;;;;;;5061954;28;20208;-72
2024/03/15 12:17:49;;;;;;;12.85;2.97;;;16.50;99.90;;;;;;5061549;28;20244;-71
2024/03/15 12:20:16;;;;;;;10.80;3.90;;;16.50;99.90;;;;;;5062945;28;20191;-72
2024/03/15 12:22:42;;;;;;;13.73;3.67;;;16.50;99.90;;;;;;5062087;28;20651;-73
2024/03/15 12:25:08;;;;;;;11.52;3.20;;;16.40;99.90;;;;;;5061906;28;20182;-71
2024/03/15 12:27:35;;;;;;;13.98;3.10;;;16.40;99.90;;;;;;5060932;28;20204;-72
2024/03/15 12:30:04;;;;;;;12.57;3.70;;;16.30;99.90;;;;;;5062148;28;20198;-72
2024/03/15 12:32:33;;;;;;;13.30;3.60;;;16.30;99.90;;;;;;5061379;28;20211;-72
2024/03/15 12:34:58;;;;;;;9.73;3.63;;;16.20;99.90;;;;;;5060764;28;20209;-73